sensor_id;sensor_type;location;lat;lon;timestamp;temperature;humidity
52899;DHT22;38763;53.096;6.062;2023-02-24T00:04:19;4.10;99.90
52899;DHT22;38763;53.096;6.062;2023-02-24T00:06:45;4.10;99.90
52899;DHT22;38763;53.096;6.062;2023-02-24T00:09:16;4.00;99.90
52899;DHT22;38763;53.096;6.062;2023-02-24T00:14:17;3.80;99.90
52899;DHT22;38763;53.096;6.062;2023-02-24T00:16:46;3.70;99.90
52899;DHT22;38763;53.096;6.062;2023-02-24T00:19:15;3.60;99.90
52899;DHT22;38763;53.096;6.062;2023-02-24T00:21:42;3.60;99.90
52899;DHT22;38763;53.096;6.062;2023-02-24T00:24:08;3.60;99.90
52899;DHT22;38763;53.096;6.062;2023-02-24T00:26:34;3.50;99.90
52899;DHT22;38763;53.096;6.062;2023-02-24T00:29:00;3.50;99.90
52899;DHT22;38763;53.096;6.062;2023-02-24T00:31:29;3.50;99.90
52899;DHT22;38763;53.096;6.062;2023-02-24T00:33:56;3.50;99.90
52899;DHT22;38763;53.096;6.062;2023-02-24T00:36:23;3.50;99.90
52899;DHT22;38763;53.096;6.062;2023-02-24T00:38:57;3.50;99.90
52899;DHT22;38763;53.096;6.062;2023-02-24T00:41:28;3.40;99.90
52899;DHT22;38763;53.096;6.062;2023-02-24T00:43:57;3.40;99.90
52899;DHT22;38763;53.096;6.062;2023-02-24T00:46:24;3.40;99.90
52899;DHT22;38763;53.096;6.062;2023-02-24T00:48:52;3.40;99.90
52899;DHT22;38763;53.096;6.062;2023-02-24T00:51:25;3.50;99.90
52899;DHT22;38763;53.096;6.062;2023-02-24T00:53:54;3.40;99.90
52899;DHT22;38763;53.096;6.062;2023-02-24T00:56:25;3.50;99.90
52899;DHT22;38763;53.096;6.062;2023-02-24T00:58:53;3.50;99.90
52899;DHT22;38763;53.096;6.062;2023-02-24T01:01:22;3.50;99.90
52899;DHT22;38763;53.096;6.062;2023-02-24T01:03:49;3.50;99.90
52899;DHT22;38763;53.096;6.062;2023-02-24T01:06:17;3.50;99.90
52899;DHT22;38763;53.096;6.062;2023-02-24T01:08:48;3.40;99.90
52899;DHT22;38763;53.096;6.062;2023-02-24T01:11:16;3.30;99.90
52899;DHT22;38763;53.096;6.062;2023-02-24T01:14:07;3.30;99.90
52899;DHT22;38763;53.096;6.062;2023-02-24T01:16:33;3.20;99.90
52899;DHT22;38763;53.096;6.062;2023-02-24T01:19:00;3.20;99.90
52899;DHT22;38763;53.096;6.062;2023-02-24T01:21:26;3.20;99.90
52899;DHT22;38763;53.096;6.062;2023-02-24T01:23:52;3.10;99.90
52899;DHT22;38763;53.096;6.062;2023-02-24T01:26:19;3.10;99.90
52899;DHT22;38763;53.096;6.062;2023-02-24T01:28:45;3.10;99.90
52899;DHT22;38763;53.096;6.062;2023-02-24T01:31:11;3.00;99.90
52899;DHT22;38763;53.096;6.062;2023-02-24T01:33:37;3.00;99.90
52899;DHT22;38763;53.096;6.062;2023-02-24T01:36:17;3.00;99.90
52899;DHT22;38763;53.096;6.062;2023-02-24T01:38:44;3.00;99.90
52899;DHT22;38763;53.096;6.062;2023-02-24T01:41:12;3.00;99.90
52899;DHT22;38763;53.096;6.062;2023-02-24T01:46:40;3.00;99.90
52899;DHT22;38763;53.096;6.062;2023-02-24T01:49:34;3.00;99.90
52899;DHT22;38763;53.096;6.062;2023-02-24T01:52:08;3.00;99.90
52899;DHT22;38763;53.096;6.062;2023-02-24T01:54:45;2.90;99.90
52899;DHT22;38763;53.096;6.062;2023-02-24T01:57:14;2.90;99.90
52899;DHT22;38763;53.096;6.062;2023-02-24T01:59:43;3.00;99.90
52899;DHT22;38763;53.096;6.062;2023-02-24T02:02:10;3.00;99.90
52899;DHT22;38763;53.096;6.062;2023-02-24T02:04:43;3.00;99.90
52899;DHT22;38763;53.096;6.062;2023-02-24T02:07:14;3.10;99.90
52899;DHT22;38763;53.096;6.062;2023-02-24T02:09:41;3.10;99.90
52899;DHT22;38763;53.096;6.062;2023-02-24T02:12:08;3.20;99.90
52899;DHT22;38763;53.096;6.062;2023-02-24T02:14:43;3.30;99.90
52899;DHT22;38763;53.096;6.062;2023-02-24T02:17:25;3.30;99.90
52899;DHT22;38763;53.096;6.062;2023-02-24T02:23:42;3.40;99.90
52899;DHT22;38763;53.096;6.062;2023-02-24T02:34:21;3.50;99.90
52899;DHT22;38763;53.096;6.062;2023-02-24T02:40:08;3.60;99.90
52899;DHT22;38763;53.096;6.062;2023-02-24T02:42:48;3.50;99.90
52899;DHT22;38763;53.096;6.062;2023-02-24T02:51:11;3.50;99.90
52899;DHT22;38763;53.096;6.062;2023-02-24T03:00:07;3.50;99.90
52899;DHT22;38763;53.096;6.062;2023-02-24T03:02:43;3.50;99.90
52899;DHT22;38763;53.096;6.062;2023-02-24T03:05:10;3.50;99.90
52899;DHT22;38763;53.096;6.062;2023-02-24T03:07:44;3.50;99.90
52899;DHT22;38763;53.096;6.062;2023-02-24T03:10:16;3.40;99.90
52899;DHT22;38763;53.096;6.062;2023-02-24T03:12:50;3.50;99.90
52899;DHT22;38763;53.096;6.062;2023-02-24T03:15:18;3.50;99.90
52899;DHT22;38763;53.096;6.062;2023-02-24T03:17:51;3.50;99.90
52899;DHT22;38763;53.096;6.062;2023-02-24T03:20:21;3.60;99.90
52899;DHT22;38763;53.096;6.062;2023-02-24T03:22:57;3.60;99.90
52899;DHT22;38763;53.096;6.062;2023-02-24T03:25:27;3.60;99.90
52899;DHT22;38763;53.096;6.062;2023-02-24T03:27:59;3.60;99.90
52899;DHT22;38763;53.096;6.062;2023-02-24T03:30:37;3.60;99.90
52899;DHT22;38763;53.096;6.062;2023-02-24T03:33:15;3.60;99.90
52899;DHT22;38763;53.096;6.062;2023-02-24T03:35:42;3.60;99.90
52899;DHT22;38763;53.096;6.062;2023-02-24T03:38:08;3.60;99.90
52899;DHT22;38763;53.096;6.062;2023-02-24T03:40:38;3.60;99.90
52899;DHT22;38763;53.096;6.062;2023-02-24T03:43:17;3.60;99.90
52899;DHT22;38763;53.096;6.062;2023-02-24T03:45:43;3.70;99.90
52899;DHT22;38763;53.096;6.062;2023-02-24T03:48:11;3.70;99.90
52899;DHT22;38763;53.096;6.062;2023-02-24T03:50:38;3.80;99.90
52899;DHT22;38763;53.096;6.062;2023-02-24T03:53:29;3.70;99.90
52899;DHT22;38763;53.096;6.062;2023-02-24T03:59:19;3.90;99.90
52899;DHT22;38763;53.096;6.062;2023-02-24T04:02:05;3.90;99.90
52899;DHT22;38763;53.096;6.062;2023-02-24T04:04:40;3.90;99.90
52899;DHT22;38763;53.096;6.062;2023-02-24T04:07:16;3.90;99.90
52899;DHT22;38763;53.096;6.062;2023-02-24T04:10:02;4.00;99.90
52899;DHT22;38763;53.096;6.062;2023-02-24T04:15:21;4.10;99.90
52899;DHT22;38763;53.096;6.062;2023-02-24T04:17:50;4.10;99.90
52899;DHT22;38763;53.096;6.062;2023-02-24T04:20:20;4.10;99.90
52899;DHT22;38763;53.096;6.062;2023-02-24T04:22:50;4.10;99.90
52899;DHT22;38763;53.096;6.062;2023-02-24T04:25:21;4.20;99.90
52899;DHT22;38763;53.096;6.062;2023-02-24T04:27:52;4.20;99.90
52899;DHT22;38763;53.096;6.062;2023-02-24T04:30:19;4.20;99.90
52899;DHT22;38763;53.096;6.062;2023-02-24T04:32:45;4.20;99.90
52899;DHT22;38763;53.096;6.062;2023-02-24T04:35:13;4.30;99.90
52899;DHT22;38763;53.096;6.062;2023-02-24T04:37:39;4.30;99.90
52899;DHT22;38763;53.096;6.062;2023-02-24T04:40:10;4.30;99.90
52899;DHT22;38763;53.096;6.062;2023-02-24T04:42:37;4.30;99.90
52899;DHT22;38763;53.096;6.062;2023-02-24T04:45:31;4.30;99.90
52899;DHT22;38763;53.096;6.062;2023-02-24T04:47:58;4.40;99.90
52899;DHT22;38763;53.096;6.062;2023-02-24T04:50:33;4.40;99.90
52899;DHT22;38763;53.096;6.062;2023-02-24T04:53:04;4.40;99.90
52899;DHT22;38763;53.096;6.062;2023-02-24T04:55:52;4.40;99.90
52899;DHT22;38763;53.096;6.062;2023-02-24T04:58:20;4.40;99.90
52899;DHT22;38763;53.096;6.062;2023-02-24T05:00:48;4.60;99.90
52899;DHT22;38763;53.096;6.062;2023-02-24T05:03:17;4.60;99.90
52899;DHT22;38763;53.096;6.062;2023-02-24T05:05:55;4.50;99.90
52899;DHT22;38763;53.096;6.062;2023-02-24T05:08:23;4.50;99.90
52899;DHT22;38763;53.096;6.062;2023-02-24T05:10:49;4.60;99.90
52899;DHT22;38763;53.096;6.062;2023-02-24T05:13:24;4.60;99.90
52899;DHT22;38763;53.096;6.062;2023-02-24T05:15:54;4.60;99.90
52899;DHT22;38763;53.096;6.062;2023-02-24T05:18:20;4.60;99.90
52899;DHT22;38763;53.096;6.062;2023-02-24T05:20:53;4.50;99.90
52899;DHT22;38763;53.096;6.062;2023-02-24T05:23:43;4.60;99.90
52899;DHT22;38763;53.096;6.062;2023-02-24T05:26:10;4.60;99.90
52899;DHT22;38763;53.096;6.062;2023-02-24T05:28:40;4.60;99.90
52899;DHT22;38763;53.096;6.062;2023-02-24T05:31:06;4.60;99.90
52899;DHT22;38763;53.096;6.062;2023-02-24T05:33:36;4.70;99.90
52899;DHT22;38763;53.096;6.062;2023-02-24T05:36:06;4.70;99.90
52899;DHT22;38763;53.096;6.062;2023-02-24T05:38:33;4.70;99.90
52899;DHT22;38763;53.096;6.062;2023-02-24T05:41:07;4.70;99.90
52899;DHT22;38763;53.096;6.062;2023-02-24T05:43:33;4.80;99.90
52899;DHT22;38763;53.096;6.062;2023-02-24T05:46:01;4.70;99.90
52899;DHT22;38763;53.096;6.062;2023-02-24T05:48:29;4.70;99.90
52899;DHT22;38763;53.096;6.062;2023-02-24T05:51:00;4.70;99.90
52899;DHT22;38763;53.096;6.062;2023-02-24T05:53:27;4.70;99.90
52899;DHT22;38763;53.096;6.062;2023-02-24T05:55:52;4.80;99.90
52899;DHT22;38763;53.096;6.062;2023-02-24T05:58:18;4.70;99.90
52899;DHT22;38763;53.096;6.062;2023-02-24T06:00:44;4.70;99.90
52899;DHT22;38763;53.096;6.062;2023-02-24T06:03:11;4.70;99.90
52899;DHT22;38763;53.096;6.062;2023-02-24T06:05:52;4.70;99.90
52899;DHT22;38763;53.096;6.062;2023-02-24T06:08:17;4.70;99.90
52899;DHT22;38763;53.096;6.062;2023-02-24T06:10:43;4.70;99.90
52899;DHT22;38763;53.096;6.062;2023-02-24T06:13:11;4.70;99.90
52899;DHT22;38763;53.096;6.062;2023-02-24T06:15:37;4.80;99.90
52899;DHT22;38763;53.096;6.062;2023-02-24T06:18:02;4.70;99.90
52899;DHT22;38763;53.096;6.062;2023-02-24T06:20:29;4.80;99.90
52899;DHT22;38763;53.096;6.062;2023-02-24T06:22:57;4.70;99.90
52899;DHT22;38763;53.096;6.062;2023-02-24T06:25:24;4.80;99.90
52899;DHT22;38763;53.096;6.062;2023-02-24T06:27:54;4.70;99.90
52899;DHT22;38763;53.096;6.062;2023-02-24T06:30:21;4.70;99.90
52899;DHT22;38763;53.096;6.062;2023-02-24T06:32:48;4.80;99.90
52899;DHT22;38763;53.096;6.062;2023-02-24T06:35:14;4.80;99.90
52899;DHT22;38763;53.096;6.062;2023-02-24T06:37:41;4.70;99.90
52899;DHT22;38763;53.096;6.062;2023-02-24T06:40:07;4.70;99.90
52899;DHT22;38763;53.096;6.062;2023-02-24T06:42:47;4.70;99.90
52899;DHT22;38763;53.096;6.062;2023-02-24T06:45:15;4.70;99.90
52899;DHT22;38763;53.096;6.062;2023-02-24T06:47:42;4.70;99.90
52899;DHT22;38763;53.096;6.062;2023-02-24T06:50:10;4.70;99.90
52899;DHT22;38763;53.096;6.062;2023-02-24T06:52:37;4.70;99.90
52899;DHT22;38763;53.096;6.062;2023-02-24T06:55:03;4.70;99.90
52899;DHT22;38763;53.096;6.062;2023-02-24T06:57:32;4.70;99.90
52899;DHT22;38763;53.096;6.062;2023-02-24T06:59:59;4.80;99.90
52899;DHT22;38763;53.096;6.062;2023-02-24T07:02:25;4.80;99.90
52899;DHT22;38763;53.096;6.062;2023-02-24T07:04:57;4.80;99.90
52899;DHT22;38763;53.096;6.062;2023-02-24T07:07:23;4.80;99.90
52899;DHT22;38763;53.096;6.062;2023-02-24T07:09:49;4.80;99.90
52899;DHT22;38763;53.096;6.062;2023-02-24T07:12:14;4.80;99.90
52899;DHT22;38763;53.096;6.062;2023-02-24T07:14:45;4.80;99.90
52899;DHT22;38763;53.096;6.062;2023-02-24T07:17:16;4.70;99.90
52899;DHT22;38763;53.096;6.062;2023-02-24T07:19:43;4.80;99.90
52899;DHT22;38763;53.096;6.062;2023-02-24T07:22:09;4.90;99.90
52899;DHT22;38763;53.096;6.062;2023-02-24T07:24:36;4.90;99.90
52899;DHT22;38763;53.096;6.062;2023-02-24T07:27:07;4.90;99.90
52899;DHT22;38763;53.096;6.062;2023-02-24T07:29:34;4.90;99.90
52899;DHT22;38763;53.096;6.062;2023-02-24T07:32:05;4.90;99.90
52899;DHT22;38763;53.096;6.062;2023-02-24T07:34:33;4.90;99.90
52899;DHT22;38763;53.096;6.062;2023-02-24T07:36:59;4.90;99.90
52899;DHT22;38763;53.096;6.062;2023-02-24T07:39:28;4.90;99.90
52899;DHT22;38763;53.096;6.062;2023-02-24T07:41:53;4.90;99.90
52899;DHT22;38763;53.096;6.062;2023-02-24T07:44:25;5.00;99.90
52899;DHT22;38763;53.096;6.062;2023-02-24T07:46:50;5.00;99.90
52899;DHT22;38763;53.096;6.062;2023-02-24T07:49:19;5.00;99.90
52899;DHT22;38763;53.096;6.062;2023-02-24T07:51:46;5.00;99.90
52899;DHT22;38763;53.096;6.062;2023-02-24T07:54:20;5.10;99.90
52899;DHT22;38763;53.096;6.062;2023-02-24T07:56:46;5.00;99.90
52899;DHT22;38763;53.096;6.062;2023-02-24T07:59:30;5.10;99.90
52899;DHT22;38763;53.096;6.062;2023-02-24T08:01:56;5.10;99.90
52899;DHT22;38763;53.096;6.062;2023-02-24T08:04:25;5.10;99.90
52899;DHT22;38763;53.096;6.062;2023-02-24T08:06:51;5.10;99.90
52899;DHT22;38763;53.096;6.062;2023-02-24T08:09:22;5.10;99.90
52899;DHT22;38763;53.096;6.062;2023-02-24T08:12:10;5.20;99.90
52899;DHT22;38763;53.096;6.062;2023-02-24T08:14:36;5.20;99.90
52899;DHT22;38763;53.096;6.062;2023-02-24T08:17:10;5.10;99.90
52899;DHT22;38763;53.096;6.062;2023-02-24T08:19:36;5.30;99.90
52899;DHT22;38763;53.096;6.062;2023-02-24T08:22:09;5.40;99.90
52899;DHT22;38763;53.096;6.062;2023-02-24T08:24:58;5.30;99.90
52899;DHT22;38763;53.096;6.062;2023-02-24T08:27:33;5.30;99.90
52899;DHT22;38763;53.096;6.062;2023-02-24T08:30:06;5.30;99.90
52899;DHT22;38763;53.096;6.062;2023-02-24T08:32:42;5.40;99.90
52899;DHT22;38763;53.096;6.062;2023-02-24T08:35:19;5.50;99.90
52899;DHT22;38763;53.096;6.062;2023-02-24T08:37:49;5.50;99.90
52899;DHT22;38763;53.096;6.062;2023-02-24T08:40:18;5.50;99.90
52899;DHT22;38763;53.096;6.062;2023-02-24T08:43:06;5.40;99.90
52899;DHT22;38763;53.096;6.062;2023-02-24T08:45:43;5.60;99.90
52899;DHT22;38763;53.096;6.062;2023-02-24T08:48:14;5.60;99.90
52899;DHT22;38763;53.096;6.062;2023-02-24T08:50:51;5.50;99.90
52899;DHT22;38763;53.096;6.062;2023-02-24T08:53:17;5.60;99.90
52899;DHT22;38763;53.096;6.062;2023-02-24T08:55:47;5.70;99.90
52899;DHT22;38763;53.096;6.062;2023-02-24T08:58:20;5.80;99.90
52899;DHT22;38763;53.096;6.062;2023-02-24T09:00:55;5.90;99.90
52899;DHT22;38763;53.096;6.062;2023-02-24T09:03:25;5.90;99.90
52899;DHT22;38763;53.096;6.062;2023-02-24T09:06:05;5.80;99.90
52899;DHT22;38763;53.096;6.062;2023-02-24T09:08:34;5.90;99.90
52899;DHT22;38763;53.096;6.062;2023-02-24T09:11:07;5.70;99.90
52899;DHT22;38763;53.096;6.062;2023-02-24T09:13:36;6.00;99.90
52899;DHT22;38763;53.096;6.062;2023-02-24T09:16:08;5.90;99.90
52899;DHT22;38763;53.096;6.062;2023-02-24T09:18:41;6.00;99.90
52899;DHT22;38763;53.096;6.062;2023-02-24T09:21:11;6.20;99.90
52899;DHT22;38763;53.096;6.062;2023-02-24T09:24:00;6.00;99.90
52899;DHT22;38763;53.096;6.062;2023-02-24T09:26:29;6.20;99.90
52899;DHT22;38763;53.096;6.062;2023-02-24T09:29:08;6.20;99.90
52899;DHT22;38763;53.096;6.062;2023-02-24T09:31:54;6.40;99.90
52899;DHT22;38763;53.096;6.062;2023-02-24T09:34:30;6.30;99.90
52899;DHT22;38763;53.096;6.062;2023-02-24T09:36:56;6.30;99.90
52899;DHT22;38763;53.096;6.062;2023-02-24T09:39:32;6.30;99.90
52899;DHT22;38763;53.096;6.062;2023-02-24T09:42:20;6.40;99.90
52899;DHT22;38763;53.096;6.062;2023-02-24T09:44:52;6.50;99.90
52899;DHT22;38763;53.096;6.062;2023-02-24T09:47:41;6.60;99.90
52899;DHT22;38763;53.096;6.062;2023-02-24T09:52:47;6.50;99.90
52899;DHT22;38763;53.096;6.062;2023-02-24T09:55:35;6.80;99.90
52899;DHT22;38763;53.096;6.062;2023-02-24T10:01:03;6.90;99.90
52899;DHT22;38763;53.096;6.062;2023-02-24T10:04:41;7.20;99.90
52899;DHT22;38763;53.096;6.062;2023-02-24T10:07:17;7.30;99.90
52899;DHT22;38763;53.096;6.062;2023-02-24T10:10:00;7.40;99.90
52899;DHT22;38763;53.096;6.062;2023-02-24T10:12:52;7.30;99.90
52899;DHT22;38763;53.096;6.062;2023-02-24T10:15:27;7.20;99.90
52899;DHT22;38763;53.096;6.062;2023-02-24T10:21:29;7.40;99.90
52899;DHT22;38763;53.096;6.062;2023-02-24T10:30:15;7.50;99.90
52899;DHT22;38763;53.096;6.062;2023-02-24T10:35:24;7.50;99.90
52899;DHT22;38763;53.096;6.062;2023-02-24T10:37:52;7.60;99.90
52899;DHT22;38763;53.096;6.062;2023-02-24T10:40:19;7.60;99.90
52899;DHT22;38763;53.096;6.062;2023-02-24T10:43:13;7.50;99.90
52899;DHT22;38763;53.096;6.062;2023-02-24T10:45:43;7.50;99.90
52899;DHT22;38763;53.096;6.062;2023-02-24T10:48:20;7.50;99.90
52899;DHT22;38763;53.096;6.062;2023-02-24T10:50:54;7.50;99.90
52899;DHT22;38763;53.096;6.062;2023-02-24T10:53:33;7.50;99.90
52899;DHT22;38763;53.096;6.062;2023-02-24T10:56:08;7.60;99.90
52899;DHT22;38763;53.096;6.062;2023-02-24T10:59:14;7.70;99.90
52899;DHT22;38763;53.096;6.062;2023-02-24T11:01:54;7.70;99.90
52899;DHT22;38763;53.096;6.062;2023-02-24T11:04:36;7.80;99.90
52899;DHT22;38763;53.096;6.062;2023-02-24T11:07:29;7.80;99.90
52899;DHT22;38763;53.096;6.062;2023-02-24T11:10:13;7.90;99.90
52899;DHT22;38763;53.096;6.062;2023-02-24T11:12:45;7.90;99.90
52899;DHT22;38763;53.096;6.062;2023-02-24T11:15:34;8.00;99.90
52899;DHT22;38763;53.096;6.062;2023-02-24T11:18:22;8.00;99.90
52899;DHT22;38763;53.096;6.062;2023-02-24T11:26:02;8.20;99.90
52899;DHT22;38763;53.096;6.062;2023-02-24T11:31:23;8.20;99.90
52899;DHT22;38763;53.096;6.062;2023-02-24T11:42:02;8.10;99.90
52899;DHT22;38763;53.096;6.062;2023-02-24T11:45:02;8.10;99.90
52899;DHT22;38763;53.096;6.062;2023-02-24T11:47:42;8.10;99.90
52899;DHT22;38763;53.096;6.062;2023-02-24T12:04:56;7.50;99.90
52899;DHT22;38763;53.096;6.062;2023-02-24T12:07:42;7.10;99.90
52899;DHT22;38763;53.096;6.062;2023-02-24T12:16:02;6.80;99.90
52899;DHT22;38763;53.096;6.062;2023-02-24T12:18:30;6.90;99.90
52899;DHT22;38763;53.096;6.062;2023-02-24T12:21:11;7.00;99.90
52899;DHT22;38763;53.096;6.062;2023-02-24T12:23:42;7.00;99.90
52899;DHT22;38763;53.096;6.062;2023-02-24T12:31:35;7.50;99.90
52899;DHT22;38763;53.096;6.062;2023-02-24T12:39:51;7.60;99.90
52899;DHT22;38763;53.096;6.062;2023-02-24T12:45:17;7.60;99.90
52899;DHT22;38763;53.096;6.062;2023-02-24T12:58:38;8.10;99.90
52899;DHT22;38763;53.096;6.062;2023-02-24T13:01:31;8.20;99.90
52899;DHT22;38763;53.096;6.062;2023-02-24T13:04:25;8.10;99.90
52899;DHT22;38763;53.096;6.062;2023-02-24T13:12:46;8.10;99.90
52899;DHT22;38763;53.096;6.062;2023-02-24T13:15:31;8.10;99.90
52899;DHT22;38763;53.096;6.062;2023-02-24T13:17:57;8.00;99.90
52899;DHT22;38763;53.096;6.062;2023-02-24T13:20:28;7.90;99.90
52899;DHT22;38763;53.096;6.062;2023-02-24T13:22:54;7.80;99.90
52899;DHT22;38763;53.096;6.062;2023-02-24T13:25:29;7.80;99.90
52899;DHT22;38763;53.096;6.062;2023-02-24T13:28:00;7.80;99.90
52899;DHT22;38763;53.096;6.062;2023-02-24T13:30:55;7.70;99.90
52899;DHT22;38763;53.096;6.062;2023-02-24T13:33:27;7.70;99.90
52899;DHT22;38763;53.096;6.062;2023-02-24T13:36:13;7.70;99.90
52899;DHT22;38763;53.096;6.062;2023-02-24T13:38:45;7.50;99.90
52899;DHT22;38763;53.096;6.062;2023-02-24T13:41:35;7.60;99.90
52899;DHT22;38763;53.096;6.062;2023-02-24T13:52:20;7.70;99.90
52899;DHT22;38763;53.096;6.062;2023-02-24T13:55:15;7.60;99.90
52899;DHT22;38763;53.096;6.062;2023-02-24T13:58:04;7.60;99.90
52899;DHT22;38763;53.096;6.062;2023-02-24T14:03:20;7.60;99.90
52899;DHT22;38763;53.096;6.062;2023-02-24T14:05:47;7.50;99.90
52899;DHT22;38763;53.096;6.062;2023-02-24T14:08:19;7.50;99.90
52899;DHT22;38763;53.096;6.062;2023-02-24T14:10:51;7.40;99.90
52899;DHT22;38763;53.096;6.062;2023-02-24T14:13:23;7.40;99.90
52899;DHT22;38763;53.096;6.062;2023-02-24T14:15:52;7.50;99.90
52899;DHT22;38763;53.096;6.062;2023-02-24T14:18:24;7.50;99.90
52899;DHT22;38763;53.096;6.062;2023-02-24T14:20:51;6.40;99.90
52899;DHT22;38763;53.096;6.062;2023-02-24T14:23:26;5.70;99.90
52899;DHT22;38763;53.096;6.062;2023-02-24T14:25:55;5.30;99.90
52899;DHT22;38763;53.096;6.062;2023-02-24T14:28:26;5.10;99.90
52899;DHT22;38763;53.096;6.062;2023-02-24T14:30:55;5.20;99.90
52899;DHT22;38763;53.096;6.062;2023-02-24T14:33:32;5.20;99.90
52899;DHT22;38763;53.096;6.062;2023-02-24T14:36:00;5.50;99.90
52899;DHT22;38763;53.096;6.062;2023-02-24T14:38:39;5.70;99.90
52899;DHT22;38763;53.096;6.062;2023-02-24T14:41:24;5.80;99.90
52899;DHT22;38763;53.096;6.062;2023-02-24T14:43:52;5.90;99.90
52899;DHT22;38763;53.096;6.062;2023-02-24T14:46:18;6.10;99.90
52899;DHT22;38763;53.096;6.062;2023-02-24T14:48:44;6.30;99.90
52899;DHT22;38763;53.096;6.062;2023-02-24T14:53:49;6.50;99.90
52899;DHT22;38763;53.096;6.062;2023-02-24T14:56:16;6.60;99.90
52899;DHT22;38763;53.096;6.062;2023-02-24T14:58:44;6.40;99.90
52899;DHT22;38763;53.096;6.062;2023-02-24T15:01:35;6.20;99.90
52899;DHT22;38763;53.096;6.062;2023-02-24T15:06:45;6.00;99.90
52899;DHT22;38763;53.096;6.062;2023-02-24T15:09:18;6.00;99.90
52899;DHT22;38763;53.096;6.062;2023-02-24T15:11:46;5.90;99.90
52899;DHT22;38763;53.096;6.062;2023-02-24T15:14:23;5.90;99.90
52899;DHT22;38763;53.096;6.062;2023-02-24T15:17:00;5.90;99.90
52899;DHT22;38763;53.096;6.062;2023-02-24T15:19:36;5.90;99.90
52899;DHT22;38763;53.096;6.062;2023-02-24T15:24:49;6.00;99.90
52899;DHT22;38763;53.096;6.062;2023-02-24T15:29:42;6.20;99.90
52899;DHT22;38763;53.096;6.062;2023-02-24T15:32:18;6.10;99.90
52899;DHT22;38763;53.096;6.062;2023-02-24T15:34:46;5.80;99.90
52899;DHT22;38763;53.096;6.062;2023-02-24T15:37:26;5.90;99.90
52899;DHT22;38763;53.096;6.062;2023-02-24T15:40:06;6.00;99.90
52899;DHT22;38763;53.096;6.062;2023-02-24T15:42:55;6.10;99.90
52899;DHT22;38763;53.096;6.062;2023-02-24T15:47:59;6.30;99.90
52899;DHT22;38763;53.096;6.062;2023-02-24T15:50:25;6.20;99.90
52899;DHT22;38763;53.096;6.062;2023-02-24T15:52:51;6.20;99.90
52899;DHT22;38763;53.096;6.062;2023-02-24T15:55:20;6.20;99.90
52899;DHT22;38763;53.096;6.062;2023-02-24T15:57:55;6.20;99.90
52899;DHT22;38763;53.096;6.062;2023-02-24T16:00:22;6.20;99.90
52899;DHT22;38763;53.096;6.062;2023-02-24T16:02:48;6.20;99.90
52899;DHT22;38763;53.096;6.062;2023-02-24T16:05:14;6.20;99.90
52899;DHT22;38763;53.096;6.062;2023-02-24T16:07:42;6.30;99.90
52899;DHT22;38763;53.096;6.062;2023-02-24T16:10:18;6.30;99.90
52899;DHT22;38763;53.096;6.062;2023-02-24T16:12:47;6.10;99.90
52899;DHT22;38763;53.096;6.062;2023-02-24T16:15:35;6.20;99.90
52899;DHT22;38763;53.096;6.062;2023-02-24T16:18:13;6.20;99.90
52899;DHT22;38763;53.096;6.062;2023-02-24T16:20:44;6.30;99.90
52899;DHT22;38763;53.096;6.062;2023-02-24T16:23:13;6.20;99.90
52899;DHT22;38763;53.096;6.062;2023-02-24T16:25:43;6.30;99.90
52899;DHT22;38763;53.096;6.062;2023-02-24T16:28:14;6.20;99.90
52899;DHT22;38763;53.096;6.062;2023-02-24T16:30:40;6.00;99.90
52899;DHT22;38763;53.096;6.062;2023-02-24T16:33:10;5.80;99.90
52899;DHT22;38763;53.096;6.062;2023-02-24T16:35:37;5.40;99.90
52899;DHT22;38763;53.096;6.062;2023-02-24T16:38:04;5.30;99.90
52899;DHT22;38763;53.096;6.062;2023-02-24T16:40:33;5.10;99.90
52899;DHT22;38763;53.096;6.062;2023-02-24T16:43:02;5.10;99.90
52899;DHT22;38763;53.096;6.062;2023-02-24T16:45:29;5.00;99.90
52899;DHT22;38763;53.096;6.062;2023-02-24T16:47:57;4.90;99.90
52899;DHT22;38763;53.096;6.062;2023-02-24T16:50:42;5.00;99.90
52899;DHT22;38763;53.096;6.062;2023-02-24T16:53:13;5.00;99.90
52899;DHT22;38763;53.096;6.062;2023-02-24T16:55:39;5.00;99.90
52899;DHT22;38763;53.096;6.062;2023-02-24T16:58:05;5.10;99.90
52899;DHT22;38763;53.096;6.062;2023-02-24T17:00:31;5.10;99.90
52899;DHT22;38763;53.096;6.062;2023-02-24T17:02:57;5.20;99.90
52899;DHT22;38763;53.096;6.062;2023-02-24T17:05:25;5.20;99.90
52899;DHT22;38763;53.096;6.062;2023-02-24T17:07:54;5.20;99.90
52899;DHT22;38763;53.096;6.062;2023-02-24T17:10:21;5.20;99.90
52899;DHT22;38763;53.096;6.062;2023-02-24T17:12:47;5.40;99.90
52899;DHT22;38763;53.096;6.062;2023-02-24T17:15:23;5.30;99.90
52899;DHT22;38763;53.096;6.062;2023-02-24T17:17:49;5.30;99.90
52899;DHT22;38763;53.096;6.062;2023-02-24T17:20:17;5.30;99.90
52899;DHT22;38763;53.096;6.062;2023-02-24T17:22:43;5.20;99.90
52899;DHT22;38763;53.096;6.062;2023-02-24T17:25:15;5.20;99.90
52899;DHT22;38763;53.096;6.062;2023-02-24T17:27:41;5.10;99.90
52899;DHT22;38763;53.096;6.062;2023-02-24T17:30:10;5.10;99.90
52899;DHT22;38763;53.096;6.062;2023-02-24T17:32:36;5.20;99.90
52899;DHT22;38763;53.096;6.062;2023-02-24T17:35:02;5.20;99.90
52899;DHT22;38763;53.096;6.062;2023-02-24T17:37:27;5.20;99.90
52899;DHT22;38763;53.096;6.062;2023-02-24T17:39:53;5.30;99.90
52899;DHT22;38763;53.096;6.062;2023-02-24T17:42:19;5.30;99.90
52899;DHT22;38763;53.096;6.062;2023-02-24T17:44:44;5.40;99.90
52899;DHT22;38763;53.096;6.062;2023-02-24T17:47:10;5.40;99.90
52899;DHT22;38763;53.096;6.062;2023-02-24T17:49:36;5.40;99.90
52899;DHT22;38763;53.096;6.062;2023-02-24T17:52:02;5.30;99.90
52899;DHT22;38763;53.096;6.062;2023-02-24T17:54:28;5.30;99.90
52899;DHT22;38763;53.096;6.062;2023-02-24T17:56:53;5.20;99.90
52899;DHT22;38763;53.096;6.062;2023-02-24T17:59:19;5.30;99.90
52899;DHT22;38763;53.096;6.062;2023-02-24T18:01:44;5.30;99.90
52899;DHT22;38763;53.096;6.062;2023-02-24T18:04:11;5.20;99.90
52899;DHT22;38763;53.096;6.062;2023-02-24T18:06:40;5.10;99.90
52899;DHT22;38763;53.096;6.062;2023-02-24T18:09:06;5.00;99.90
52899;DHT22;38763;53.096;6.062;2023-02-24T18:11:31;5.00;99.90
52899;DHT22;38763;53.096;6.062;2023-02-24T18:13:58;4.90;99.90
52899;DHT22;38763;53.096;6.062;2023-02-24T18:16:25;4.80;99.90
52899;DHT22;38763;53.096;6.062;2023-02-24T18:18:51;4.90;99.90
52899;DHT22;38763;53.096;6.062;2023-02-24T18:21:17;4.80;99.90
52899;DHT22;38763;53.096;6.062;2023-02-24T18:23:42;4.80;99.90
52899;DHT22;38763;53.096;6.062;2023-02-24T18:26:10;4.80;99.90
52899;DHT22;38763;53.096;6.062;2023-02-24T18:28:35;4.80;99.90
52899;DHT22;38763;53.096;6.062;2023-02-24T18:31:09;4.70;99.90
52899;DHT22;38763;53.096;6.062;2023-02-24T18:33:35;4.80;99.90
52899;DHT22;38763;53.096;6.062;2023-02-24T18:36:01;4.70;99.90
52899;DHT22;38763;53.096;6.062;2023-02-24T18:38:27;4.70;99.90
52899;DHT22;38763;53.096;6.062;2023-02-24T18:41:04;4.70;99.90
52899;DHT22;38763;53.096;6.062;2023-02-24T18:43:30;4.70;99.90
52899;DHT22;38763;53.096;6.062;2023-02-24T18:46:10;4.60;99.90